ETHN

Niederstetten Airport

Niederstetten, Germany
METAR ETHN 162220Z 23011KT 9999 BKN180 BKN240 03/M03 Q1006 BLU
Observed Flight Rules
Jan-16 @ 22:20 UTC (26 minutes ago) Visual Flight Rules
Wind Visibility Clouds
230° at 11 knots 10,000+ meters
  • Broken at 18,000' AGL
  • Broken at 24,000' AGL
Temperatures Readings
Current 3°C / 37°F
Dewpoint -3°C / 27°F
Humidity 65%
Altimeter 29.7" Hg
Pressure 1005.92 hPa
Elevation 473
METAR ETHN 162220Z 23011KT 9999 BKN180 BKN240 03/M03 Q1006 BLU
Observed Flight Rules
Jan-16 @ 22:20 UTC
(26 minutes ago)
VFR
Wind Visibility
230° at 11 knots 10,000+ meters
Clouds
  • Broken at 18,000' AGL
  • Broken at 24,000' AGL
Temperature Dewpoint
3°C / 37°F -3°C / 27°F
Humidity Altimeter Pressure
65% 29.7" Hg 1005.92 hPa